sensor_id;sensor_type;location;lat;lon;timestamp;temperature;humidity
25342;DHT22;13298;48.792;9.154;2023-05-10T00:02:09;13.10;99.90
25342;DHT22;13298;48.792;9.154;2023-05-10T00:04:34;13.10;99.90
25342;DHT22;13298;48.792;9.154;2023-05-10T00:07:00;13.00;99.90
25342;DHT22;13298;48.792;9.154;2023-05-10T00:09:26;13.00;99.90
25342;DHT22;13298;48.792;9.154;2023-05-10T00:11:52;13.00;99.90
25342;DHT22;13298;48.792;9.154;2023-05-10T00:14:18;12.90;99.90
25342;DHT22;13298;48.792;9.154;2023-05-10T00:16:44;12.90;99.90
25342;DHT22;13298;48.792;9.154;2023-05-10T00:19:09;12.90;99.90
25342;DHT22;13298;48.792;9.154;2023-05-10T00:21:35;12.80;99.90
25342;DHT22;13298;48.792;9.154;2023-05-10T00:24:01;12.70;99.90
25342;DHT22;13298;48.792;9.154;2023-05-10T00:26:27;12.70;99.90
25342;DHT22;13298;48.792;9.154;2023-05-10T00:28:52;12.60;99.90
25342;DHT22;13298;48.792;9.154;2023-05-10T00:31:18;12.50;99.90
25342;DHT22;13298;48.792;9.154;2023-05-10T00:33:44;12.50;99.90
25342;DHT22;13298;48.792;9.154;2023-05-10T00:36:09;12.40;99.90
25342;DHT22;13298;48.792;9.154;2023-05-10T00:38:35;12.40;99.90
25342;DHT22;13298;48.792;9.154;2023-05-10T00:41:01;12.40;99.90
25342;DHT22;13298;48.792;9.154;2023-05-10T00:43:27;12.40;99.90
25342;DHT22;13298;48.792;9.154;2023-05-10T00:45:53;12.30;99.90
25342;DHT22;13298;48.792;9.154;2023-05-10T00:48:18;12.20;99.90
25342;DHT22;13298;48.792;9.154;2023-05-10T00:50:45;12.20;99.90
25342;DHT22;13298;48.792;9.154;2023-05-10T00:53:10;12.20;99.90
25342;DHT22;13298;48.792;9.154;2023-05-10T00:55:36;12.20;99.90
25342;DHT22;13298;48.792;9.154;2023-05-10T00:58:03;12.20;99.90
25342;DHT22;13298;48.792;9.154;2023-05-10T01:00:29;12.10;99.90
25342;DHT22;13298;48.792;9.154;2023-05-10T01:02:54;12.10;99.90
25342;DHT22;13298;48.792;9.154;2023-05-10T01:05:20;12.10;99.90
25342;DHT22;13298;48.792;9.154;2023-05-10T01:07:46;12.10;99.90
25342;DHT22;13298;48.792;9.154;2023-05-10T01:10:12;12.00;99.90
25342;DHT22;13298;48.792;9.154;2023-05-10T01:12:40;12.10;99.90
25342;DHT22;13298;48.792;9.154;2023-05-10T01:15:10;12.10;99.90
25342;DHT22;13298;48.792;9.154;2023-05-10T01:17:38;12.10;99.90
25342;DHT22;13298;48.792;9.154;2023-05-10T01:20:06;12.10;99.90
25342;DHT22;13298;48.792;9.154;2023-05-10T01:23:11;12.10;99.90
25342;DHT22;13298;48.792;9.154;2023-05-10T01:28:58;12.10;99.90
25342;DHT22;13298;48.792;9.154;2023-05-10T01:32:09;12.10;99.90
25342;DHT22;13298;48.792;9.154;2023-05-10T01:34:59;12.10;99.90
25342;DHT22;13298;48.792;9.154;2023-05-10T01:38:14;12.00;99.90
25342;DHT22;13298;48.792;9.154;2023-05-10T01:41:01;12.00;99.90
25342;DHT22;13298;48.792;9.154;2023-05-10T01:46:56;11.90;99.90
25342;DHT22;13298;48.792;9.154;2023-05-10T01:49:31;11.80;99.90
25342;DHT22;13298;48.792;9.154;2023-05-10T01:52:06;11.80;99.90
25342;DHT22;13298;48.792;9.154;2023-05-10T01:54:38;11.80;99.90
25342;DHT22;13298;48.792;9.154;2023-05-10T01:57:06;11.70;99.90
25342;DHT22;13298;48.792;9.154;2023-05-10T01:59:35;11.70;99.90
25342;DHT22;13298;48.792;9.154;2023-05-10T02:02:02;11.70;99.90
25342;DHT22;13298;48.792;9.154;2023-05-10T02:04:30;11.70;99.90
25342;DHT22;13298;48.792;9.154;2023-05-10T02:06:56;11.60;99.90
25342;DHT22;13298;48.792;9.154;2023-05-10T02:09:24;11.60;99.90
25342;DHT22;13298;48.792;9.154;2023-05-10T02:11:50;11.60;99.90
25342;DHT22;13298;48.792;9.154;2023-05-10T02:14:17;11.50;99.90
25342;DHT22;13298;48.792;9.154;2023-05-10T02:16:45;11.60;99.90
25342;DHT22;13298;48.792;9.154;2023-05-10T02:19:12;11.50;99.90
25342;DHT22;13298;48.792;9.154;2023-05-10T02:21:40;11.50;99.90
25342;DHT22;13298;48.792;9.154;2023-05-10T02:24:07;11.50;99.90
25342;DHT22;13298;48.792;9.154;2023-05-10T02:26:34;11.50;99.90
25342;DHT22;13298;48.792;9.154;2023-05-10T02:29:02;11.40;99.90
25342;DHT22;13298;48.792;9.154;2023-05-10T02:31:31;11.40;99.90
25342;DHT22;13298;48.792;9.154;2023-05-10T02:33:58;11.40;99.90
25342;DHT22;13298;48.792;9.154;2023-05-10T02:36:25;11.40;99.90
25342;DHT22;13298;48.792;9.154;2023-05-10T02:38:53;11.40;99.90
25342;DHT22;13298;48.792;9.154;2023-05-10T02:41:20;11.50;99.90
25342;DHT22;13298;48.792;9.154;2023-05-10T02:43:50;11.50;99.90
25342;DHT22;13298;48.792;9.154;2023-05-10T02:46:17;11.60;99.90
25342;DHT22;13298;48.792;9.154;2023-05-10T02:48:44;11.60;99.90
25342;DHT22;13298;48.792;9.154;2023-05-10T02:51:12;11.70;99.90
25342;DHT22;13298;48.792;9.154;2023-05-10T02:53:41;11.60;99.90
25342;DHT22;13298;48.792;9.154;2023-05-10T02:56:14;11.70;99.90
25342;DHT22;13298;48.792;9.154;2023-05-10T02:58:42;11.70;99.90
25342;DHT22;13298;48.792;9.154;2023-05-10T03:01:08;11.70;99.90
25342;DHT22;13298;48.792;9.154;2023-05-10T03:03:34;11.70;99.90
25342;DHT22;13298;48.792;9.154;2023-05-10T03:06:00;11.80;99.90
25342;DHT22;13298;48.792;9.154;2023-05-10T03:08:25;11.70;99.90
25342;DHT22;13298;48.792;9.154;2023-05-10T03:14:07;11.80;99.90
25342;DHT22;13298;48.792;9.154;2023-05-10T03:16:56;11.80;99.90
25342;DHT22;13298;48.792;9.154;2023-05-10T03:19:43;11.80;99.90
25342;DHT22;13298;48.792;9.154;2023-05-10T03:22:27;11.80;99.90
25342;DHT22;13298;48.792;9.154;2023-05-10T03:25:04;11.80;99.90
25342;DHT22;13298;48.792;9.154;2023-05-10T03:27:31;11.70;99.90
25342;DHT22;13298;48.792;9.154;2023-05-10T03:29:57;11.80;99.90
25342;DHT22;13298;48.792;9.154;2023-05-10T03:32:24;11.80;99.90
25342;DHT22;13298;48.792;9.154;2023-05-10T03:34:49;11.80;99.90
25342;DHT22;13298;48.792;9.154;2023-05-10T03:37:15;11.80;99.90
25342;DHT22;13298;48.792;9.154;2023-05-10T03:39:41;11.80;99.90
25342;DHT22;13298;48.792;9.154;2023-05-10T03:42:06;11.80;99.90
25342;DHT22;13298;48.792;9.154;2023-05-10T03:44:32;11.80;99.90
25342;DHT22;13298;48.792;9.154;2023-05-10T03:47:00;11.80;99.90
25342;DHT22;13298;48.792;9.154;2023-05-10T03:49:26;11.80;99.90
25342;DHT22;13298;48.792;9.154;2023-05-10T03:51:52;11.80;99.90
25342;DHT22;13298;48.792;9.154;2023-05-10T03:54:17;11.80;99.90
25342;DHT22;13298;48.792;9.154;2023-05-10T03:56:43;11.80;99.90
25342;DHT22;13298;48.792;9.154;2023-05-10T03:59:09;11.80;99.90
25342;DHT22;13298;48.792;9.154;2023-05-10T04:01:35;11.80;99.90
25342;DHT22;13298;48.792;9.154;2023-05-10T04:04:00;11.80;99.90
25342;DHT22;13298;48.792;9.154;2023-05-10T04:06:26;11.80;99.90
25342;DHT22;13298;48.792;9.154;2023-05-10T04:08:52;11.80;99.90
25342;DHT22;13298;48.792;9.154;2023-05-10T04:11:17;11.80;99.90
25342;DHT22;13298;48.792;9.154;2023-05-10T04:13:43;11.80;99.90
25342;DHT22;13298;48.792;9.154;2023-05-10T04:16:09;11.80;99.90
25342;DHT22;13298;48.792;9.154;2023-05-10T04:18:35;11.80;99.90
25342;DHT22;13298;48.792;9.154;2023-05-10T04:21:01;11.90;99.90
25342;DHT22;13298;48.792;9.154;2023-05-10T04:23:27;11.90;99.90
25342;DHT22;13298;48.792;9.154;2023-05-10T04:25:58;11.90;99.90
25342;DHT22;13298;48.792;9.154;2023-05-10T04:28:24;11.90;99.90
25342;DHT22;13298;48.792;9.154;2023-05-10T04:30:50;12.00;99.90
25342;DHT22;13298;48.792;9.154;2023-05-10T04:33:16;11.90;99.90
25342;DHT22;13298;48.792;9.154;2023-05-10T04:35:41;12.00;99.90
25342;DHT22;13298;48.792;9.154;2023-05-10T04:38:07;12.00;99.90
25342;DHT22;13298;48.792;9.154;2023-05-10T04:40:33;12.00;99.90
25342;DHT22;13298;48.792;9.154;2023-05-10T04:42:59;12.00;99.90
25342;DHT22;13298;48.792;9.154;2023-05-10T04:45:25;12.10;99.90
25342;DHT22;13298;48.792;9.154;2023-05-10T04:47:51;12.10;99.90
25342;DHT22;13298;48.792;9.154;2023-05-10T04:50:16;12.10;99.90
25342;DHT22;13298;48.792;9.154;2023-05-10T04:52:42;12.20;99.90
25342;DHT22;13298;48.792;9.154;2023-05-10T04:55:08;12.30;99.90
25342;DHT22;13298;48.792;9.154;2023-05-10T04:57:35;12.30;99.90
25342;DHT22;13298;48.792;9.154;2023-05-10T05:00:00;12.40;99.90
25342;DHT22;13298;48.792;9.154;2023-05-10T05:02:27;12.40;99.90
25342;DHT22;13298;48.792;9.154;2023-05-10T05:04:52;12.50;99.90
25342;DHT22;13298;48.792;9.154;2023-05-10T05:07:18;12.50;99.90
25342;DHT22;13298;48.792;9.154;2023-05-10T05:09:44;12.60;99.90
25342;DHT22;13298;48.792;9.154;2023-05-10T05:12:09;12.60;99.90
25342;DHT22;13298;48.792;9.154;2023-05-10T05:14:39;12.70;99.90
25342;DHT22;13298;48.792;9.154;2023-05-10T05:17:05;12.70;99.90
25342;DHT22;13298;48.792;9.154;2023-05-10T05:19:31;12.80;99.90
25342;DHT22;13298;48.792;9.154;2023-05-10T05:21:57;12.90;99.90
25342;DHT22;13298;48.792;9.154;2023-05-10T05:24:23;13.00;99.90
25342;DHT22;13298;48.792;9.154;2023-05-10T05:26:48;13.10;99.90
25342;DHT22;13298;48.792;9.154;2023-05-10T05:29:14;13.20;99.90
25342;DHT22;13298;48.792;9.154;2023-05-10T05:31:40;13.20;99.90
25342;DHT22;13298;48.792;9.154;2023-05-10T05:34:05;13.30;99.90
25342;DHT22;13298;48.792;9.154;2023-05-10T05:36:31;13.30;99.90
25342;DHT22;13298;48.792;9.154;2023-05-10T05:38:57;13.40;99.90
25342;DHT22;13298;48.792;9.154;2023-05-10T05:41:23;13.40;99.90
25342;DHT22;13298;48.792;9.154;2023-05-10T05:43:49;13.40;99.90
25342;DHT22;13298;48.792;9.154;2023-05-10T05:46:15;13.50;99.90
25342;DHT22;13298;48.792;9.154;2023-05-10T05:48:41;13.50;99.90
25342;DHT22;13298;48.792;9.154;2023-05-10T05:51:06;13.50;99.90
25342;DHT22;13298;48.792;9.154;2023-05-10T05:53:32;13.60;99.90
25342;DHT22;13298;48.792;9.154;2023-05-10T05:55:58;13.60;99.90
25342;DHT22;13298;48.792;9.154;2023-05-10T05:58:25;13.70;99.90
25342;DHT22;13298;48.792;9.154;2023-05-10T06:00:51;13.70;99.90
25342;DHT22;13298;48.792;9.154;2023-05-10T06:03:18;13.70;99.90
25342;DHT22;13298;48.792;9.154;2023-05-10T06:05:43;13.70;99.90
25342;DHT22;13298;48.792;9.154;2023-05-10T06:08:09;13.70;99.90
25342;DHT22;13298;48.792;9.154;2023-05-10T06:10:35;13.80;99.90
25342;DHT22;13298;48.792;9.154;2023-05-10T06:13:01;13.90;99.90
25342;DHT22;13298;48.792;9.154;2023-05-10T06:15:27;14.00;99.90
25342;DHT22;13298;48.792;9.154;2023-05-10T06:17:53;14.00;99.90
25342;DHT22;13298;48.792;9.154;2023-05-10T06:20:19;14.10;99.90
25342;DHT22;13298;48.792;9.154;2023-05-10T06:22:44;14.10;99.90
25342;DHT22;13298;48.792;9.154;2023-05-10T06:25:10;14.20;99.90
25342;DHT22;13298;48.792;9.154;2023-05-10T06:27:36;14.10;99.90
25342;DHT22;13298;48.792;9.154;2023-05-10T06:30:02;14.10;99.90
25342;DHT22;13298;48.792;9.154;2023-05-10T06:32:29;14.00;99.90
25342;DHT22;13298;48.792;9.154;2023-05-10T06:34:54;14.00;99.90
25342;DHT22;13298;48.792;9.154;2023-05-10T06:37:20;14.00;99.90
25342;DHT22;13298;48.792;9.154;2023-05-10T06:39:46;14.00;99.90
25342;DHT22;13298;48.792;9.154;2023-05-10T06:42:11;14.00;99.90
25342;DHT22;13298;48.792;9.154;2023-05-10T06:44:37;14.10;99.90
25342;DHT22;13298;48.792;9.154;2023-05-10T06:47:03;14.10;99.90
25342;DHT22;13298;48.792;9.154;2023-05-10T06:49:29;14.20;99.90
25342;DHT22;13298;48.792;9.154;2023-05-10T06:51:58;14.20;99.90
25342;DHT22;13298;48.792;9.154;2023-05-10T06:54:23;14.30;99.90
25342;DHT22;13298;48.792;9.154;2023-05-10T06:56:49;14.20;99.90
25342;DHT22;13298;48.792;9.154;2023-05-10T06:59:15;14.20;99.90
25342;DHT22;13298;48.792;9.154;2023-05-10T07:01:42;14.20;99.90
25342;DHT22;13298;48.792;9.154;2023-05-10T07:04:08;14.20;99.90
25342;DHT22;13298;48.792;9.154;2023-05-10T07:06:33;14.40;99.90
25342;DHT22;13298;48.792;9.154;2023-05-10T07:08:59;14.60;99.90
25342;DHT22;13298;48.792;9.154;2023-05-10T07:11:25;14.70;99.90
25342;DHT22;13298;48.792;9.154;2023-05-10T07:13:52;14.80;99.90
25342;DHT22;13298;48.792;9.154;2023-05-10T07:16:17;14.90;99.90
25342;DHT22;13298;48.792;9.154;2023-05-10T07:18:43;15.00;99.90
25342;DHT22;13298;48.792;9.154;2023-05-10T07:21:09;15.20;99.90
25342;DHT22;13298;48.792;9.154;2023-05-10T07:23:34;15.30;99.90
25342;DHT22;13298;48.792;9.154;2023-05-10T07:26:00;15.40;99.90
25342;DHT22;13298;48.792;9.154;2023-05-10T07:28:27;15.50;99.90
25342;DHT22;13298;48.792;9.154;2023-05-10T07:30:53;15.50;99.90
25342;DHT22;13298;48.792;9.154;2023-05-10T07:33:18;15.60;99.90
25342;DHT22;13298;48.792;9.154;2023-05-10T07:35:44;15.70;99.90
25342;DHT22;13298;48.792;9.154;2023-05-10T07:38:10;15.90;99.90
25342;DHT22;13298;48.792;9.154;2023-05-10T07:40:39;16.00;99.90
25342;DHT22;13298;48.792;9.154;2023-05-10T07:43:05;16.00;99.90
25342;DHT22;13298;48.792;9.154;2023-05-10T07:45:31;16.10;99.90
25342;DHT22;13298;48.792;9.154;2023-05-10T07:47:56;16.20;99.90
25342;DHT22;13298;48.792;9.154;2023-05-10T07:50:22;16.40;99.90
25342;DHT22;13298;48.792;9.154;2023-05-10T07:52:48;16.50;99.90
25342;DHT22;13298;48.792;9.154;2023-05-10T07:55:13;16.60;99.90
25342;DHT22;13298;48.792;9.154;2023-05-10T07:57:39;16.60;99.90
25342;DHT22;13298;48.792;9.154;2023-05-10T08:00:06;16.60;99.90
25342;DHT22;13298;48.792;9.154;2023-05-10T08:02:34;16.50;99.90
25342;DHT22;13298;48.792;9.154;2023-05-10T08:05:00;16.50;99.90
25342;DHT22;13298;48.792;9.154;2023-05-10T08:07:26;16.40;99.90
25342;DHT22;13298;48.792;9.154;2023-05-10T08:09:52;16.40;99.90
25342;DHT22;13298;48.792;9.154;2023-05-10T08:12:17;16.40;99.90
25342;DHT22;13298;48.792;9.154;2023-05-10T08:14:43;16.30;99.90
25342;DHT22;13298;48.792;9.154;2023-05-10T08:17:09;16.30;99.90
25342;DHT22;13298;48.792;9.154;2023-05-10T08:19:34;16.30;99.90
25342;DHT22;13298;48.792;9.154;2023-05-10T08:22:00;16.30;99.90
25342;DHT22;13298;48.792;9.154;2023-05-10T08:24:26;16.30;99.90
25342;DHT22;13298;48.792;9.154;2023-05-10T08:26:51;16.20;99.90
25342;DHT22;13298;48.792;9.154;2023-05-10T08:29:17;16.30;99.90
25342;DHT22;13298;48.792;9.154;2023-05-10T08:31:43;16.30;99.90
25342;DHT22;13298;48.792;9.154;2023-05-10T08:34:09;16.30;99.90
25342;DHT22;13298;48.792;9.154;2023-05-10T08:36:34;16.30;99.90
25342;DHT22;13298;48.792;9.154;2023-05-10T08:39:01;16.40;99.90
25342;DHT22;13298;48.792;9.154;2023-05-10T08:41:27;16.50;99.90
25342;DHT22;13298;48.792;9.154;2023-05-10T08:43:54;16.60;99.90
25342;DHT22;13298;48.792;9.154;2023-05-10T08:46:22;16.70;99.90
25342;DHT22;13298;48.792;9.154;2023-05-10T08:48:49;16.80;99.90
25342;DHT22;13298;48.792;9.154;2023-05-10T08:51:18;17.00;99.90
25342;DHT22;13298;48.792;9.154;2023-05-10T08:53:45;17.20;99.90
25342;DHT22;13298;48.792;9.154;2023-05-10T08:56:11;17.30;99.90
25342;DHT22;13298;48.792;9.154;2023-05-10T08:58:37;17.30;99.90
25342;DHT22;13298;48.792;9.154;2023-05-10T09:01:04;17.40;99.90
25342;DHT22;13298;48.792;9.154;2023-05-10T09:03:31;17.40;99.90
25342;DHT22;13298;48.792;9.154;2023-05-10T09:05:57;17.40;99.90
25342;DHT22;13298;48.792;9.154;2023-05-10T09:08:24;17.40;99.90
25342;DHT22;13298;48.792;9.154;2023-05-10T09:10:51;17.40;99.90
25342;DHT22;13298;48.792;9.154;2023-05-10T09:13:18;17.40;99.90
25342;DHT22;13298;48.792;9.154;2023-05-10T09:15:45;17.40;99.90
25342;DHT22;13298;48.792;9.154;2023-05-10T09:18:11;17.30;99.90
25342;DHT22;13298;48.792;9.154;2023-05-10T09:20:37;17.20;99.90
25342;DHT22;13298;48.792;9.154;2023-05-10T09:23:03;17.10;99.90
25342;DHT22;13298;48.792;9.154;2023-05-10T09:25:28;17.10;99.90
25342;DHT22;13298;48.792;9.154;2023-05-10T09:27:54;17.20;99.90
25342;DHT22;13298;48.792;9.154;2023-05-10T09:30:30;17.20;99.90
25342;DHT22;13298;48.792;9.154;2023-05-10T09:32:57;17.20;99.90
25342;DHT22;13298;48.792;9.154;2023-05-10T09:35:25;17.30;99.90
25342;DHT22;13298;48.792;9.154;2023-05-10T09:37:57;17.40;99.90
25342;DHT22;13298;48.792;9.154;2023-05-10T09:40:26;17.50;99.90
25342;DHT22;13298;48.792;9.154;2023-05-10T09:43:04;17.70;99.90
25342;DHT22;13298;48.792;9.154;2023-05-10T09:45:34;17.90;99.90
25342;DHT22;13298;48.792;9.154;2023-05-10T09:48:03;17.90;99.90
25342;DHT22;13298;48.792;9.154;2023-05-10T09:50:29;17.80;99.90
25342;DHT22;13298;48.792;9.154;2023-05-10T09:53:00;17.90;99.90
25342;DHT22;13298;48.792;9.154;2023-05-10T09:58:07;18.20;99.90
25342;DHT22;13298;48.792;9.154;2023-05-10T10:00:37;18.10;99.90
25342;DHT22;13298;48.792;9.154;2023-05-10T10:03:04;18.00;99.90
25342;DHT22;13298;48.792;9.154;2023-05-10T10:05:31;17.80;99.90
25342;DHT22;13298;48.792;9.154;2023-05-10T10:07:58;17.60;99.90
25342;DHT22;13298;48.792;9.154;2023-05-10T10:10:24;17.40;99.90
25342;DHT22;13298;48.792;9.154;2023-05-10T10:12:51;17.10;99.90
25342;DHT22;13298;48.792;9.154;2023-05-10T10:15:18;16.80;99.90
25342;DHT22;13298;48.792;9.154;2023-05-10T10:17:44;16.70;99.90
25342;DHT22;13298;48.792;9.154;2023-05-10T10:20:11;16.70;99.90
25342;DHT22;13298;48.792;9.154;2023-05-10T10:22:37;16.80;99.90
25342;DHT22;13298;48.792;9.154;2023-05-10T10:25:04;17.10;99.90
25342;DHT22;13298;48.792;9.154;2023-05-10T10:35:35;18.10;99.90
25342;DHT22;13298;48.792;9.154;2023-05-10T10:38:02;18.20;99.90
25342;DHT22;13298;48.792;9.154;2023-05-10T10:40:31;18.20;99.90
25342;DHT22;13298;48.792;9.154;2023-05-10T10:43:25;18.30;99.90
25342;DHT22;13298;48.792;9.154;2023-05-10T10:46:17;18.40;99.90
25342;DHT22;13298;48.792;9.154;2023-05-10T10:48:52;18.30;99.90
25342;DHT22;13298;48.792;9.154;2023-05-10T10:51:37;18.20;99.90
25342;DHT22;13298;48.792;9.154;2023-05-10T10:54:10;18.10;99.90
25342;DHT22;13298;48.792;9.154;2023-05-10T10:56:36;17.90;99.90
25342;DHT22;13298;48.792;9.154;2023-05-10T10:59:02;17.70;99.90
25342;DHT22;13298;48.792;9.154;2023-05-10T11:01:33;17.60;99.90
25342;DHT22;13298;48.792;9.154;2023-05-10T11:06:29;17.30;99.90
25342;DHT22;13298;48.792;9.154;2023-05-10T11:09:00;17.20;99.90
25342;DHT22;13298;48.792;9.154;2023-05-10T11:11:31;17.20;99.90
25342;DHT22;13298;48.792;9.154;2023-05-10T11:14:03;17.10;99.90
25342;DHT22;13298;48.792;9.154;2023-05-10T11:16:43;16.90;99.90
25342;DHT22;13298;48.792;9.154;2023-05-10T11:19:17;16.90;99.90
25342;DHT22;13298;48.792;9.154;2023-05-10T11:22:31;16.80;99.90
25342;DHT22;13298;48.792;9.154;2023-05-10T11:24:56;16.70;99.90
25342;DHT22;13298;48.792;9.154;2023-05-10T11:27:23;16.70;99.90
25342;DHT22;13298;48.792;9.154;2023-05-10T11:29:52;16.80;99.90
25342;DHT22;13298;48.792;9.154;2023-05-10T11:32:19;17.00;99.90
25342;DHT22;13298;48.792;9.154;2023-05-10T11:34:47;17.30;99.90
25342;DHT22;13298;48.792;9.154;2023-05-10T11:37:13;17.60;99.90
25342;DHT22;13298;48.792;9.154;2023-05-10T11:39:45;18.00;99.90
25342;DHT22;13298;48.792;9.154;2023-05-10T11:42:12;18.20;99.90
25342;DHT22;13298;48.792;9.154;2023-05-10T11:44:38;18.40;99.90
25342;DHT22;13298;48.792;9.154;2023-05-10T11:47:05;18.30;99.90
25342;DHT22;13298;48.792;9.154;2023-05-10T11:49:31;18.10;99.90
25342;DHT22;13298;48.792;9.154;2023-05-10T11:52:06;17.90;99.90
25342;DHT22;13298;48.792;9.154;2023-05-10T11:54:32;17.70;99.90
25342;DHT22;13298;48.792;9.154;2023-05-10T11:57:00;17.40;99.90
25342;DHT22;13298;48.792;9.154;2023-05-10T11:59:25;17.00;99.90
25342;DHT22;13298;48.792;9.154;2023-05-10T12:01:51;16.80;99.90
25342;DHT22;13298;48.792;9.154;2023-05-10T12:04:17;16.50;99.90
25342;DHT22;13298;48.792;9.154;2023-05-10T12:06:43;16.30;99.90
25342;DHT22;13298;48.792;9.154;2023-05-10T12:09:09;16.10;99.90
25342;DHT22;13298;48.792;9.154;2023-05-10T12:11:39;16.10;99.90
25342;DHT22;13298;48.792;9.154;2023-05-10T12:14:06;16.20;99.90
25342;DHT22;13298;48.792;9.154;2023-05-10T12:16:32;16.30;99.90
25342;DHT22;13298;48.792;9.154;2023-05-10T12:18:59;16.50;99.90
25342;DHT22;13298;48.792;9.154;2023-05-10T12:21:26;16.70;99.90
25342;DHT22;13298;48.792;9.154;2023-05-10T12:23:58;17.00;99.90
25342;DHT22;13298;48.792;9.154;2023-05-10T12:26:25;17.10;99.90
25342;DHT22;13298;48.792;9.154;2023-05-10T12:28:54;17.30;99.90
25342;DHT22;13298;48.792;9.154;2023-05-10T12:31:20;17.30;99.90
25342;DHT22;13298;48.792;9.154;2023-05-10T12:33:46;17.40;99.90
25342;DHT22;13298;48.792;9.154;2023-05-10T12:36:15;17.60;99.90
25342;DHT22;13298;48.792;9.154;2023-05-10T12:38:42;17.70;99.90
25342;DHT22;13298;48.792;9.154;2023-05-10T12:41:16;17.70;99.90
25342;DHT22;13298;48.792;9.154;2023-05-10T12:43:43;17.70;99.90
25342;DHT22;13298;48.792;9.154;2023-05-10T12:46:13;17.60;99.90
25342;DHT22;13298;48.792;9.154;2023-05-10T12:48:42;17.60;99.90
25342;DHT22;13298;48.792;9.154;2023-05-10T12:51:08;17.70;99.90
25342;DHT22;13298;48.792;9.154;2023-05-10T12:53:35;17.70;99.90
25342;DHT22;13298;48.792;9.154;2023-05-10T12:56:01;17.70;99.90
25342;DHT22;13298;48.792;9.154;2023-05-10T12:58:27;17.60;99.90
25342;DHT22;13298;48.792;9.154;2023-05-10T13:00:53;17.60;99.90
25342;DHT22;13298;48.792;9.154;2023-05-10T13:03:19;17.50;99.90
25342;DHT22;13298;48.792;9.154;2023-05-10T13:05:45;17.40;99.90
25342;DHT22;13298;48.792;9.154;2023-05-10T13:08:10;17.00;99.90
25342;DHT22;13298;48.792;9.154;2023-05-10T13:10:36;16.70;99.90
25342;DHT22;13298;48.792;9.154;2023-05-10T13:13:02;16.50;99.90
25342;DHT22;13298;48.792;9.154;2023-05-10T13:15:28;16.30;99.90
25342;DHT22;13298;48.792;9.154;2023-05-10T13:17:54;16.30;99.90
25342;DHT22;13298;48.792;9.154;2023-05-10T13:20:20;16.20;99.90
25342;DHT22;13298;48.792;9.154;2023-05-10T13:22:46;16.30;99.90
25342;DHT22;13298;48.792;9.154;2023-05-10T13:25:12;16.40;99.90
25342;DHT22;13298;48.792;9.154;2023-05-10T13:27:41;16.50;99.90
25342;DHT22;13298;48.792;9.154;2023-05-10T13:30:07;16.70;99.90
25342;DHT22;13298;48.792;9.154;2023-05-10T13:32:34;16.70;99.90
25342;DHT22;13298;48.792;9.154;2023-05-10T13:35:01;16.80;99.90
25342;DHT22;13298;48.792;9.154;2023-05-10T13:37:29;16.90;99.90
25342;DHT22;13298;48.792;9.154;2023-05-10T13:39:55;17.10;99.90
25342;DHT22;13298;48.792;9.154;2023-05-10T13:42:22;17.30;99.90
25342;DHT22;13298;48.792;9.154;2023-05-10T13:44:49;17.60;99.90
25342;DHT22;13298;48.792;9.154;2023-05-10T13:47:15;17.70;99.90
25342;DHT22;13298;48.792;9.154;2023-05-10T13:49:41;17.80;99.90
25342;DHT22;13298;48.792;9.154;2023-05-10T13:52:06;17.80;99.90
25342;DHT22;13298;48.792;9.154;2023-05-10T13:54:36;17.80;99.90
25342;DHT22;13298;48.792;9.154;2023-05-10T13:57:03;17.60;99.90
25342;DHT22;13298;48.792;9.154;2023-05-10T13:59:29;17.40;99.90
25342;DHT22;13298;48.792;9.154;2023-05-10T14:01:57;17.30;99.90
25342;DHT22;13298;48.792;9.154;2023-05-10T14:04:23;17.20;99.90
25342;DHT22;13298;48.792;9.154;2023-05-10T14:06:49;17.10;99.90
25342;DHT22;13298;48.792;9.154;2023-05-10T14:09:15;17.20;99.90
25342;DHT22;13298;48.792;9.154;2023-05-10T14:11:41;17.40;99.90
25342;DHT22;13298;48.792;9.154;2023-05-10T14:14:09;17.60;99.90
25342;DHT22;13298;48.792;9.154;2023-05-10T14:16:35;17.70;99.90
25342;DHT22;13298;48.792;9.154;2023-05-10T14:19:00;17.70;99.90
25342;DHT22;13298;48.792;9.154;2023-05-10T14:21:27;17.70;99.90
25342;DHT22;13298;48.792;9.154;2023-05-10T14:23:54;17.80;99.90
25342;DHT22;13298;48.792;9.154;2023-05-10T14:26:20;17.90;99.90
25342;DHT22;13298;48.792;9.154;2023-05-10T14:28:46;17.80;99.90
25342;DHT22;13298;48.792;9.154;2023-05-10T14:31:12;17.80;99.90
25342;DHT22;13298;48.792;9.154;2023-05-10T14:33:39;17.80;99.90
25342;DHT22;13298;48.792;9.154;2023-05-10T14:36:06;17.70;99.90
25342;DHT22;13298;48.792;9.154;2023-05-10T14:38:32;17.70;99.90
25342;DHT22;13298;48.792;9.154;2023-05-10T14:40:58;17.70;99.90
25342;DHT22;13298;48.792;9.154;2023-05-10T14:43:23;17.70;99.90
25342;DHT22;13298;48.792;9.154;2023-05-10T14:45:49;17.80;99.90
25342;DHT22;13298;48.792;9.154;2023-05-10T14:48:15;17.90;99.90
25342;DHT22;13298;48.792;9.154;2023-05-10T14:50:43;17.90;99.90
25342;DHT22;13298;48.792;9.154;2023-05-10T14:53:09;17.80;99.90
25342;DHT22;13298;48.792;9.154;2023-05-10T14:55:35;17.80;99.90
25342;DHT22;13298;48.792;9.154;2023-05-10T14:58:02;17.80;99.90
25342;DHT22;13298;48.792;9.154;2023-05-10T15:00:29;17.70;99.90
25342;DHT22;13298;48.792;9.154;2023-05-10T15:02:56;17.60;99.90
25342;DHT22;13298;48.792;9.154;2023-05-10T15:05:22;17.50;99.90
25342;DHT22;13298;48.792;9.154;2023-05-10T15:07:48;17.60;99.90
25342;DHT22;13298;48.792;9.154;2023-05-10T15:10:14;17.60;99.90
25342;DHT22;13298;48.792;9.154;2023-05-10T15:12:40;17.60;99.90
25342;DHT22;13298;48.792;9.154;2023-05-10T15:15:06;17.60;99.90
25342;DHT22;13298;48.792;9.154;2023-05-10T15:17:33;17.60;99.90
25342;DHT22;13298;48.792;9.154;2023-05-10T15:19:58;17.60;99.90
25342;DHT22;13298;48.792;9.154;2023-05-10T15:22:24;17.50;99.90
25342;DHT22;13298;48.792;9.154;2023-05-10T15:24:50;17.50;99.90
25342;DHT22;13298;48.792;9.154;2023-05-10T15:27:16;17.50;99.90
25342;DHT22;13298;48.792;9.154;2023-05-10T15:29:42;17.60;99.90
25342;DHT22;13298;48.792;9.154;2023-05-10T15:32:08;17.60;99.90
25342;DHT22;13298;48.792;9.154;2023-05-10T15:34:33;17.50;99.90
25342;DHT22;13298;48.792;9.154;2023-05-10T15:36:59;17.50;99.90
25342;DHT22;13298;48.792;9.154;2023-05-10T15:39:25;17.40;99.90
25342;DHT22;13298;48.792;9.154;2023-05-10T15:41:50;17.40;99.90
25342;DHT22;13298;48.792;9.154;2023-05-10T15:44:16;17.40;99.90
25342;DHT22;13298;48.792;9.154;2023-05-10T15:46:43;17.50;99.90
25342;DHT22;13298;48.792;9.154;2023-05-10T15:49:09;17.50;99.90
25342;DHT22;13298;48.792;9.154;2023-05-10T15:51:35;17.60;99.90
25342;DHT22;13298;48.792;9.154;2023-05-10T15:54:01;17.60;99.90
25342;DHT22;13298;48.792;9.154;2023-05-10T15:56:28;17.70;99.90